Time;durP1;ratioP1;P1;durP2;ratioP2;P2;SDS_P1;SDS_P2;PMS_P1;PMS_P2;Temp;Humidity;BMP_temperature;BMP_pressure;BME280_temperature;BME280_humidity;BME280_pressure;Samples;Min_cycle;Max_cycle;Signal;HPM_P1;HPM_P2
2021/07/01 00:01:58;;;;;;;8.33;4.60;;;;;;;15.87;75.23;99888.98;1721900;82;21011;-74
2021/07/01 00:04:24;;;;;;;10.78;4.92;;;;;;;15.88;75.32;99883.91;1711298;82;21053;-74
2021/07/01 00:06:50;;;;;;;4.22;3.80;;;;;;;15.90;75.37;99881.85;1734543;82;20999;-74
2021/07/01 00:09:18;;;;;;;6.30;3.72;;;;;;;15.88;75.41;99882.57;1734727;82;21080;-74
2021/07/01 00:11:46;;;;;;;9.35;4.10;;;;;;;15.83;75.46;99875.14;1743360;81;21069;-74
2021/07/01 00:14:12;;;;;;;8.60;5.45;;;;;;;15.81;75.51;99867.00;1757703;81;21077;-74
2021/07/01 00:16:38;;;;;;;7.10;3.37;;;;;;;15.80;75.55;99871.55;1757600;81;21025;-74
2021/07/01 00:19:05;;;;;;;5.30;3.52;;;;;;;15.80;75.62;99874.75;1757549;81;21030;-74
2021/07/01 00:21:32;;;;;;;7.80;3.47;;;;;;;15.80;75.65;99873.41;1757715;81;21216;-74
2021/07/01 00:23:58;;;;;;;4.25;3.70;;;;;;;15.79;75.71;99876.64;1757514;81;20994;-74
2021/07/01 00:26:24;;;;;;;8.80;4.97;;;;;;;15.79;75.78;99874.47;1757659;81;21416;-74
2021/07/01 00:28:50;;;;;;;6.33;3.80;;;;;;;15.81;75.82;99880.44;1734915;81;20978;-74
2021/07/01 00:31:17;;;;;;;7.90;4.55;;;;;;;15.81;75.86;99876.41;1745646;81;20998;-73
2021/07/01 00:33:43;;;;;;;7.42;4.65;;;;;;;15.81;75.91;99875.06;1757211;81;21829;-74
2021/07/01 00:36:09;;;;;;;5.70;4.08;;;;;;;15.77;75.96;99871.98;1757528;81;21014;-74
2021/07/01 00:38:35;;;;;;;4.83;3.95;;;;;;;15.73;76.01;99869.94;1757668;81;21046;-74
2021/07/01 00:41:01;;;;;;;9.08;4.33;;;;;;;15.71;76.07;99869.34;1739915;81;21051;-74
2021/07/01 00:43:27;;;;;;;11.12;5.80;;;;;;;15.69;76.10;99869.55;1734671;82;21030;-74
2021/07/01 00:45:53;;;;;;;8.80;5.50;;;;;;;15.68;76.15;99865.23;1734513;82;21481;-73
2021/07/01 00:48:20;;;;;;;8.20;5.00;;;;;;;15.67;76.15;99865.43;1734519;81;21081;-74
2021/07/01 00:50:46;;;;;;;6.70;3.90;;;;;;;15.66;76.22;99865.95;1734561;82;21514;-73
2021/07/01 00:53:12;;;;;;;8.60;5.70;;;;;;;15.64;76.28;99864.52;1734379;82;21019;-74
2021/07/01 00:55:38;;;;;;;8.10;5.50;;;;;;;15.62;76.31;99862.58;1734579;82;21526;-74
2021/07/01 00:58:05;;;;;;;8.78;6.08;;;;;;;15.60;76.38;99862.78;1734251;82;21160;-74
2021/07/01 01:03:07;;;;;;;9.53;6.20;;;;;;;15.56;76.45;99861.56;1737742;81;21011;-74
2021/07/01 01:05:33;;;;;;;9.18;6.53;;;;;;;15.52;76.47;99864.92;1752571;81;21499;-74
2021/07/01 01:07:59;;;;;;;7.95;5.60;;;;;;;15.48;76.52;99856.42;1752753;81;21015;-74
2021/07/01 01:10:26;;;;;;;18.82;9.30;;;;;;;15.40;76.52;99857.50;1752220;81;21948;-73
2021/07/01 01:12:52;;;;;;;18.70;9.55;;;;;;;15.40;76.52;99857.50;1752463;81;21006;-74
2021/07/01 01:15:18;;;;;;;7.03;4.78;;;;;;;15.37;76.68;99857.92;1751191;81;21045;-74
2021/07/01 01:17:44;;;;;;;7.92;4.33;;;;;;;15.34;76.75;99847.58;1752410;81;21314;-74
2021/07/01 01:20:12;;;;;;;10.35;5.87;;;;;;;15.32;77.07;99844.81;1752328;81;21021;-74
2021/07/01 01:22:39;;;;;;;18.07;9.50;;;;;;;15.29;76.88;99839.36;1752557;81;21118;-74
2021/07/01 01:25:06;;;;;;;6.25;4.00;;;;;;;15.29;76.99;99838.53;1752398;81;21038;-74
2021/07/01 01:27:32;;;;;;;4.62;3.90;;;;;;;15.29;77.05;99835.33;1742087;81;21089;-74
2021/07/01 01:29:58;;;;;;;11.45;5.47;;;;;;;15.29;77.09;99830.47;1732330;82;21039;-74
2021/07/01 01:32:24;;;;;;;6.55;4.10;;;;;;;15.29;77.13;99828.61;1732155;81;21018;-74
2021/07/01 01:34:51;;;;;;;9.83;5.75;;;;;;;15.29;77.21;99823.23;1732137;82;21589;-74
2021/07/01 01:37:17;;;;;;;6.50;4.33;;;;;;;15.29;77.24;99825.92;1732196;82;21059;-74
2021/07/01 01:39:50;;;;;;;5.83;4.20;;;;;;;15.30;77.31;99820.03;1732389;82;21530;-74
2021/07/01 01:42:16;;;;;;;6.60;3.65;;;;;;;15.32;77.36;99820.11;1731949;82;21022;-74
2021/07/01 01:44:43;;;;;;;4.97;3.47;;;;;;;15.31;77.48;99817.63;1738798;81;21553;-74
2021/07/01 01:47:19;;;;;;;6.00;4.45;;;;;;;15.33;77.47;99813.72;1752634;81;21129;-74
2021/07/01 01:49:47;;;;;;;6.87;3.85;;;;;;;15.33;77.47;99811.02;1752392;81;21038;-74
2021/07/01 01:52:13;;;;;;;7.53;4.00;;;;;;;15.33;77.47;99811.02;1752601;81;21046;-74
2021/07/01 01:54:39;;;;;;;5.50;3.80;;;;;;;15.33;77.56;99811.02;1752214;80;20994;-74
2021/07/01 01:57:06;;;;;;;6.03;4.08;;;;;;;15.32;77.58;99813.40;1752635;80;21570;-74
2021/07/01 01:59:32;;;;;;;5.75;4.08;;;;;;;15.30;77.59;99807.43;1752597;81;21225;-74
2021/07/01 02:01:59;;;;;;;6.15;3.67;;;;;;;15.28;77.61;99808.14;1756000;81;21454;-74
2021/07/01 02:04:25;;;;;;;5.17;4.10;;;;;;;15.29;77.63;99807.12;1731957;81;21534;-74
2021/07/01 02:06:54;;;;;;;5.22;4.03;;;;;;;15.29;77.73;99812.48;1729372;81;21011;-74
2021/07/01 02:09:19;;;;;;;8.60;5.50;;;;;;;15.33;77.66;99812.38;1729324;82;21047;-74
2021/07/01 02:11:45;;;;;;;10.45;5.35;;;;;;;15.33;77.66;99811.02;1755660;81;21141;-74
2021/07/01 02:14:11;;;;;;;11.38;4.65;;;;;;;15.33;77.67;99815.05;1757249;81;20975;-74
2021/07/01 02:16:37;;;;;;;5.50;4.28;;;;;;;15.34;77.71;99804.59;1757263;81;21050;-74
2021/07/01 02:19:03;;;;;;;8.95;4.40;;;;;;;15.33;77.73;99812.38;1757234;81;21431;-74
2021/07/01 02:21:30;;;;;;;7.45;4.50;;;;;;;15.26;77.69;99797.31;1756958;81;21312;-74
2021/07/01 02:23:56;;;;;;;7.87;5.03;;;;;;;15.37;77.77;99817.63;1757379;81;21789;-74
2021/07/01 02:26:22;;;;;;;9.65;4.67;;;;;;;15.37;77.78;99809.56;1757176;81;21043;-73
2021/07/01 02:28:48;;;;;;;6.83;4.70;;;;;;;15.36;77.79;99801.19;1757154;81;21523;-73
2021/07/01 02:31:14;;;;;;;10.00;4.92;;;;;;;15.22;77.78;99776.78;1757236;81;20998;-74
2021/07/01 02:33:40;;;;;;;9.80;4.17;;;;;;;15.32;77.75;99812.05;1760199;81;21450;-73
2021/07/01 02:36:06;;;;;;;7.12;4.33;;;;;;;15.32;77.75;99812.05;1762134;81;21330;-74
2021/07/01 02:38:32;;;;;;;10.32;6.00;;;;;;;15.33;77.82;99816.40;1762034;81;21033;-74
2021/07/01 02:40:58;;;;;;;9.78;5.95;;;;;;;15.34;77.88;99815.34;1762176;81;21021;-73
2021/07/01 02:43:24;;;;;;;6.58;4.80;;;;;;;15.35;77.88;99810.80;1762231;81;21455;-73
2021/07/01 02:45:51;;;;;;;7.12;4.47;;;;;;;15.37;77.94;99814.94;1762409;81;20974;-74
2021/07/01 02:48:17;;;;;;;7.17;4.40;;;;;;;15.38;77.94;99811.19;1762203;81;21637;-73
2021/07/01 02:50:43;;;;;;;8.30;4.47;;;;;;;15.39;77.96;99810.16;1762170;81;20986;-73
2021/07/01 02:53:10;;;;;;;13.13;6.12;;;;;;;15.42;78.00;99807.55;1748888;81;21010;-73
2021/07/01 02:55:36;;;;;;;10.32;4.97;;;;;;;15.41;78.04;99809.41;1729106;81;20987;-73
2021/07/01 02:58:03;;;;;;;7.12;4.83;;;;;;;15.43;78.06;99814.06;1700116;83;21053;-73
2021/07/01 03:00:29;;;;;;;6.92;4.70;;;;;;;15.46;78.09;99814.98;1717597;81;21746;-73
2021/07/01 03:02:55;;;;;;;10.48;4.90;;;;;;;15.48;78.12;99818.29;1756664;81;21034;-73
2021/07/01 03:05:21;;;;;;;8.05;4.40;;;;;;;15.51;78.13;99809.51;1756870;81;21034;-74
2021/07/01 03:07:48;;;;;;;15.93;6.87;;;;;;;15.53;78.16;99811.45;1757350;81;20991;-73
2021/07/01 03:10:14;;;;;;;11.15;5.08;;;;;;;15.57;78.18;99801.91;1757131;81;21053;-74
2021/07/01 03:12:40;;;;;;;7.75;4.92;;;;;;;15.64;78.21;99808.08;1756575;81;21146;-74
2021/07/01 03:15:07;;;;;;;5.85;4.37;;;;;;;15.69;78.22;99805.57;1757124;81;21442;-74
2021/07/01 03:17:33;;;;;;;11.22;5.35;;;;;;;15.65;78.22;99793.59;1756849;81;21045;-73
2021/07/01 03:19:59;;;;;;;8.83;5.08;;;;;;;15.76;78.24;99815.20;1756958;81;21050;-73
2021/07/01 03:22:25;;;;;;;7.75;4.97;;;;;;;15.80;78.27;99815.59;1757100;81;21054;-74
2021/07/01 03:24:51;;;;;;;9.48;5.67;;;;;;;15.83;78.29;99820.56;1757171;81;21142;-73
2021/07/01 03:27:17;;;;;;;9.65;4.40;;;;;;;15.86;78.28;99819.61;1751664;81;20995;-73
2021/07/01 03:29:43;;;;;;;7.37;4.17;;;;;;;15.93;78.32;99816.35;1729080;82;21043;-74
2021/07/01 03:32:09;;;;;;;9.78;4.72;;;;;;;16.33;78.60;99820.02;1729186;82;20964;-74
2021/07/01 03:34:36;;;;;;;9.30;4.70;;;;;;;17.23;78.78;99817.09;1729078;83;21039;-74
2021/07/01 03:37:02;;;;;;;4.17;3.40;;;;;;;17.99;78.40;99824.00;1728962;83;21160;-74
2021/07/01 03:39:28;;;;;;;10.15;3.80;;;;;;;18.70;77.99;99817.59;1729196;82;20983;-74
2021/07/01 03:41:54;;;;;;;3.92;3.52;;;;;;;19.21;77.44;99814.89;1729170;83;21007;-74
2021/07/01 03:44:21;;;;;;;7.08;4.78;;;;;;;19.63;76.85;99823.59;1754874;81;21010;-75
2021/07/01 03:46:47;;;;;;;5.65;3.70;;;;;;;19.80;76.38;99820.38;1756786;81;21037;-74
2021/07/01 03:49:13;;;;;;;6.25;3.45;;;;;;;20.17;76.04;99824.78;1756909;81;21182;-74
2021/07/01 03:51:39;;;;;;;3.37;3.08;;;;;;;20.56;75.44;99824.86;1756784;81;21002;-75
2021/07/01 03:54:05;;;;;;;4.58;2.70;;;;;;;20.82;74.82;99816.03;1732177;81;20964;-75
2021/07/01 03:56:41;;;;;;;6.40;2.95;;;;;;;21.06;74.13;99818.78;1747492;81;21014;-75
2021/07/01 03:59:10;;;;;;;5.92;2.33;;;;;;;21.31;73.28;99825.90;1756878;80;20994;-75
2021/07/01 04:01:37;;;;;;;7.33;2.60;;;;;;;21.63;72.54;99825.98;1756723;81;26917;-74
2021/07/01 04:04:03;;;;;;;2.47;2.25;;;;;;;21.94;71.79;99828.47;1757278;81;21053;-75
2021/07/01 04:06:30;;;;;;;6.85;2.72;;;;;;;22.01;70.80;99820.93;1757565;81;21058;-75
2021/07/01 04:08:56;;;;;;;3.80;2.95;;;;;;;22.14;70.03;99816.41;1757079;81;21003;-75
2021/07/01 04:11:22;;;;;;;6.53;3.70;;;;;;;22.47;69.29;99815.84;1734478;82;20915;-75
2021/07/01 04:13:48;;;;;;;6.15;3.40;;;;;;;22.93;68.56;99803.36;1734393;82;21715;-75
2021/07/01 04:16:14;;;;;;;5.95;3.25;;;;;;;22.06;67.15;99810.09;1734396;82;20883;-75
2021/07/01 04:18:40;;;;;;;7.15;2.92;;;;;;;21.04;67.16;99810.63;1734480;82;20986;-75
2021/07/01 04:21:06;;;;;;;5.72;2.98;;;;;;;20.17;67.42;99810.41;1734320;82;20979;-74
2021/07/01 04:23:33;;;;;;;3.80;2.87;;;;;;;19.62;67.60;99818.41;1734642;82;21002;-74
2021/07/01 04:25:59;;;;;;;11.50;3.55;;;;;;;19.18;67.75;99820.78;1734589;81;21141;-74
2021/07/01 04:28:25;;;;;;;12.25;3.70;;;;;;;18.78;67.91;99818.59;1752033;81;21013;-75
2021/07/01 04:30:51;;;;;;;5.35;4.28;;;;;;;18.57;68.14;99825.44;1757503;81;21005;-74
2021/07/01 04:33:17;;;;;;;7.10;4.30;;;;;;;18.33;68.30;99824.56;1757365;81;21030;-74
2021/07/01 04:35:49;;;;;;;7.65;3.70;;;;;;;18.17;68.57;99819.86;1757223;81;21022;-74
2021/07/01 04:38:16;;;;;;;6.15;3.55;;;;;;;18.09;68.79;99820.20;1734355;82;21250;-74
2021/07/01 04:40:42;;;;;;;9.98;4.53;;;;;;;18.03;68.95;99824.36;1734449;82;21007;-74
2021/07/01 04:43:08;;;;;;;8.13;4.37;;;;;;;17.91;69.16;99829.72;1734326;82;21314;-75
2021/07/01 04:45:35;;;;;;;5.30;4.05;;;;;;;17.89;69.36;99835.89;1734621;82;21022;-74
2021/07/01 04:48:02;;;;;;;5.35;4.00;;;;;;;17.85;69.58;99834.17;1734562;82;21066;-74
2021/07/01 04:50:29;;;;;;;6.47;4.12;;;;;;;17.93;69.78;99828.98;1734170;81;21850;-74
2021/07/01 04:52:55;;;;;;;5.90;3.65;;;;;;;18.23;69.83;99837.81;1746189;81;21533;-74
2021/07/01 04:55:21;;;;;;;7.92;3.42;;;;;;;18.69;69.88;99837.56;1757730;81;21006;-75
2021/07/01 04:57:47;;;;;;;4.83;3.22;;;;;;;19.36;69.86;99833.30;1757451;80;20980;-74
2021/07/01 05:00:14;;;;;;;5.42;2.95;;;;;;;19.78;69.66;99837.91;1757576;81;21538;-75
2021/07/01 05:02:40;;;;;;;5.17;3.42;;;;;;;19.95;69.56;99841.45;1757123;81;21784;-74
2021/07/01 05:05:08;;;;;;;9.88;3.02;;;;;;;19.76;69.52;99840.87;1742631;81;21058;-75
2021/07/01 05:07:46;;;;;;;6.60;3.20;;;;;;;19.66;69.54;99846.63;1729059;82;21003;-75
2021/07/01 05:10:13;;;;;;;5.40;2.87;;;;;;;19.60;69.26;99846.25;1729157;82;21463;-75
2021/07/01 05:12:39;;;;;;;4.45;3.12;;;;;;;19.38;69.22;99857.71;1729028;83;20991;-75
2021/07/01 05:15:06;;;;;;;7.12;3.05;;;;;;;19.33;69.09;99854.89;1729044;82;21641;-75
2021/07/01 05:17:35;;;;;;;5.10;2.70;;;;;;;19.48;68.99;99851.70;1729030;83;21038;-75
2021/07/01 05:20:01;;;;;;;8.28;2.40;;;;;;;19.31;68.79;99855.67;1729297;83;21523;-75
2021/07/01 05:22:27;;;;;;;6.47;2.33;;;;;;;19.61;68.80;99850.05;1729504;81;20976;-75
2021/07/01 05:24:53;;;;;;;4.60;2.20;;;;;;;20.08;68.65;99858.75;1709256;82;21469;-75
2021/07/01 05:27:19;;;;;;;8.43;2.83;;;;;;;20.44;68.53;99866.41;1727974;81;21166;-76
2021/07/01 05:29:45;;;;;;;4.97;3.45;;;;;;;20.76;68.30;99861.20;1724680;83;21045;-76
2021/07/01 05:32:13;;;;;;;4.08;2.58;;;;;;;21.04;67.97;99857.51;1725955;81;21013;-75
2021/07/01 05:34:40;;;;;;;6.17;2.20;;;;;;;21.24;67.68;99865.14;1726389;83;21020;-75
2021/07/01 05:37:06;;;;;;;3.17;2.55;;;;;;;21.25;67.25;99864.86;1725502;83;21039;-76
2021/07/01 05:39:32;;;;;;;4.65;2.90;;;;;;;21.37;67.04;99862.86;1729138;81;21641;-76
2021/07/01 05:41:58;;;;;;;4.25;2.92;;;;;;;21.50;66.50;99870.34;1729155;83;20992;-76
2021/07/01 05:44:24;;;;;;;4.28;2.92;;;;;;;21.64;66.19;99872.94;1729099;83;20885;-75
2021/07/01 05:46:50;;;;;;;5.53;3.10;;;;;;;21.40;65.78;99881.34;1729056;81;21020;-76
2021/07/01 05:49:16;;;;;;;6.25;3.30;;;;;;;21.05;65.62;99886.27;1729133;83;20989;-75
2021/07/01 05:51:44;;;;;;;7.92;3.35;;;;;;;20.95;65.62;99891.56;1729069;83;21336;-75
2021/07/01 05:54:24;;;;;;;5.60;3.40;;;;;;;21.35;65.52;99888.08;1729159;83;20992;-75
2021/07/01 05:56:44;;;;;;;6.87;3.50;;;;;;;21.31;65.19;99896.43;1723841;83;21081;-75
2021/07/01 05:59:11;;;;;;;7.95;3.25;;;;;;;21.04;64.97;99900.89;1726173;81;21655;-75
2021/07/01 06:01:37;;;;;;;4.92;3.30;;;;;;;20.67;65.03;99906.06;1732934;81;21012;-75
2021/07/01 06:04:05;;;;;;;12.00;4.45;;;;;;;20.27;65.04;99908.06;1725663;81;21115;-75
2021/07/01 06:06:33;;;;;;;8.80;3.00;;;;;;;19.88;65.10;99908.45;1725117;82;21063;-74
2021/07/01 06:08:59;;;;;;;7.30;3.40;;;;;;;19.65;65.21;99913.97;1725176;82;21135;-74
2021/07/01 06:11:26;;;;;;;5.05;3.58;;;;;;;19.50;65.41;99909.59;1722883;82;21403;-75
2021/07/01 06:13:52;;;;;;;4.90;2.92;;;;;;;19.50;65.52;99913.66;1728730;81;21520;-75
2021/07/01 06:16:18;;;;;;;5.20;2.80;;;;;;;19.70;65.70;99915.44;1730340;81;21155;-75
2021/07/01 06:18:44;;;;;;;4.92;2.65;;;;;;;19.76;65.67;99911.75;1730566;81;21445;-75
2021/07/01 06:21:10;;;;;;;5.45;2.80;;;;;;;19.77;65.75;99916.11;1729120;82;21549;-75
2021/07/01 06:23:39;;;;;;;4.92;3.40;;;;;;;19.65;65.81;99914.80;1726506;82;20987;-75
2021/07/01 06:26:05;;;;;;;5.53;3.42;;;;;;;19.51;65.96;99905.84;1725857;81;21092;-75
2021/07/01 06:28:34;;;;;;;7.90;3.10;;;;;;;19.38;66.03;99921.78;1730708;82;21217;-75
2021/07/01 06:31:01;;;;;;;4.37;2.85;;;;;;;19.31;66.15;99920.58;1729260;82;21044;-75
2021/07/01 06:33:27;;;;;;;3.75;3.05;;;;;;;19.25;66.24;99920.15;1729069;82;21509;-75
2021/07/01 06:35:55;;;;;;;7.20;3.80;;;;;;;19.17;66.33;99920.54;1730393;82;21051;-75
2021/07/01 06:38:23;;;;;;;8.60;4.22;;;;;;;19.11;66.44;99920.11;1734142;81;21010;-75
2021/07/01 06:40:51;;;;;;;4.45;3.08;;;;;;;19.18;66.59;99922.69;1729636;82;21189;-75
2021/07/01 06:43:22;;;;;;;6.55;2.80;;;;;;;19.26;66.58;99912.34;1726458;82;21048;-74
2021/07/01 06:45:52;;;;;;;10.25;2.67;;;;;;;19.35;66.65;99910.89;1724958;82;21493;-75
2021/07/01 06:48:20;;;;;;;6.97;3.35;;;;;;;19.33;66.76;99914.38;1730655;81;20981;-75
2021/07/01 06:50:46;;;;;;;4.40;3.65;;;;;;;19.38;66.78;99915.85;1691242;82;21123;-75
2021/07/01 06:53:13;;;;;;;5.85;3.27;;;;;;;19.30;66.81;99913.52;1724350;82;21812;-75
2021/07/01 06:55:39;;;;;;;6.08;3.83;;;;;;;19.25;66.84;99917.45;1729660;82;21044;-75
2021/07/01 06:58:06;;;;;;;7.37;4.20;;;;;;;19.35;66.87;99920.36;1729698;81;21005;-75
2021/07/01 07:00:32;;;;;;;7.42;4.35;;;;;;;19.52;66.94;99911.02;1727600;82;21120;-75
2021/07/01 07:02:58;;;;;;;7.92;4.08;;;;;;;19.77;66.87;99915.55;1724913;81;21259;-75
2021/07/01 07:05:24;;;;;;;7.03;3.80;;;;;;;20.19;66.87;99908.48;1734140;82;21541;-75
2021/07/01 07:07:50;;;;;;;8.15;3.75;;;;;;;20.41;66.73;99908.89;1729224;81;21077;-75
2021/07/01 07:10:19;;;;;;;4.22;3.75;;;;;;;20.44;66.62;99911.10;1730509;81;20997;-75
2021/07/01 07:12:48;;;;;;;5.50;3.77;;;;;;;20.34;66.49;99915.00;1733858;82;21588;-75
2021/07/01 07:15:23;;;;;;;7.00;3.50;;;;;;;20.32;66.46;99917.15;1732742;82;21107;-75
2021/07/01 07:17:49;;;;;;;11.63;4.17;;;;;;;20.39;66.33;99917.81;1730368;81;21171;-75
2021/07/01 07:20:15;;;;;;;7.80;3.98;;;;;;;20.38;66.22;99907.20;1732930;81;21522;-75
2021/07/01 07:22:41;;;;;;;5.00;4.08;;;;;;;20.43;66.14;99897.83;1727903;82;21000;-75
2021/07/01 07:25:10;;;;;;;5.17;3.58;;;;;;;20.49;66.02;99904.13;1727410;82;21084;-75
2021/07/01 07:27:38;;;;;;;5.72;3.92;;;;;;;20.82;65.95;99902.77;1726715;82;20996;-75
2021/07/01 07:30:06;;;;;;;5.80;3.92;;;;;;;20.92;65.68;99905.62;1731439;81;21221;-75
2021/07/01 07:32:32;;;;;;;4.45;4.05;;;;;;;21.24;65.71;99909.36;1731224;82;21027;-75
2021/07/01 07:34:58;;;;;;;8.65;4.87;;;;;;;21.41;65.35;99910.65;1725712;82;21031;-75
2021/07/01 07:37:25;;;;;;;6.95;3.62;;;;;;;21.30;65.13;99910.23;1732513;81;20969;-75
2021/07/01 07:39:51;;;;;;;5.75;3.70;;;;;;;21.21;65.11;99909.87;1731076;81;21087;-75
2021/07/01 07:42:17;;;;;;;6.50;4.85;;;;;;;20.98;64.93;99925.48;1727671;82;21983;-75
2021/07/01 07:44:44;;;;;;;4.85;4.15;;;;;;;20.70;64.75;99915.58;1718597;82;21051;-75
2021/07/01 07:47:12;;;;;;;5.92;4.58;;;;;;;20.40;64.67;99921.34;1733360;82;21065;-75
2021/07/01 07:49:38;;;;;;;5.78;4.67;;;;;;;20.08;64.76;99915.61;1737266;81;21021;-75
2021/07/01 07:52:08;;;;;;;9.23;4.95;;;;;;;20.01;64.83;99917.65;1730761;81;21017;-75
2021/07/01 07:54:44;;;;;;;;;;;;;;;19.99;64.85;99920.28;1734394;81;21320;-75
2021/07/01 07:57:10;;;;;;;5.55;4.40;;;;;;;19.92;64.92;99921.79;1730346;81;20448;-75
2021/07/01 07:59:36;;;;;;;6.87;4.17;;;;;;;19.75;65.00;99923.63;1727528;81;21005;-75
2021/07/01 08:02:04;;;;;;;4.40;4.00;;;;;;;19.62;65.14;99928.80;1730173;81;21067;-74
2021/07/01 08:04:34;;;;;;;6.33;4.35;;;;;;;19.64;65.26;99928.55;1728377;82;21026;-74
2021/07/01 08:07:00;;;;;;;8.63;5.17;;;;;;;20.03;65.49;99918.21;1732667;82;21114;-74
2021/07/01 08:09:27;;;;;;;10.93;4.87;;;;;;;20.82;65.45;99927.16;1732821;81;21044;-75
2021/07/01 08:11:54;;;;;;;5.30;4.80;;;;;;;21.06;65.01;99927.77;1730218;82;21016;-74
2021/07/01 08:14:22;;;;;;;10.75;6.28;;;;;;;20.90;64.75;99932.14;1733167;81;21015;-72
2021/07/01 08:16:49;;;;;;;8.55;4.47;;;;;;;21.06;64.79;99929.95;1730405;82;21088;-72
2021/07/01 08:19:15;;;;;;;5.00;3.72;;;;;;;21.72;64.62;99926.75;1729050;82;22195;-75
2021/07/01 08:21:41;;;;;;;6.10;4.10;;;;;;;22.24;64.21;99921.08;1730710;82;21032;-75
2021/07/01 08:24:10;;;;;;;6.83;4.28;;;;;;;22.59;63.70;99917.05;1731120;82;21031;-75
2021/07/01 08:26:36;;;;;;;7.92;4.92;;;;;;;22.30;63.01;99918.72;1729513;82;21020;-75
2021/07/01 08:29:04;;;;;;;8.65;5.03;;;;;;;21.87;62.60;99925.58;1725892;83;21054;-75
2021/07/01 08:31:31;;;;;;;7.35;5.35;;;;;;;21.50;62.50;99923.25;1724500;83;22569;-75
2021/07/01 08:33:58;;;;;;;5.17;4.65;;;;;;;21.30;62.44;99928.69;1727695;81;21487;-75
2021/07/01 08:36:25;;;;;;;8.80;5.60;;;;;;;21.27;62.34;99918.34;1723607;81;21285;-75
2021/07/01 08:38:53;;;;;;;9.40;4.95;;;;;;;21.20;62.20;99920.42;1730179;81;20993;-78
2021/07/01 08:41:28;;;;;;;6.70;4.60;;;;;;;21.23;62.21;99923.98;1729230;82;21080;-77
2021/07/01 08:44:00;;;;;;;7.33;4.55;;;;;;;21.25;62.13;99920.47;1731395;82;21366;-75
2021/07/01 08:46:48;;;;;;;6.87;6.03;;;;;;;21.14;62.10;99922.78;1726754;82;21073;-75
2021/07/01 08:49:35;;;;;;;7.80;5.67;;;;;;;21.30;62.17;99923.80;1732946;81;21486;-75
2021/07/01 08:52:05;;;;;;;6.12;4.80;;;;;;;21.82;62.26;99920.90;1733734;82;20997;-74
2021/07/01 08:54:34;;;;;;;10.58;5.40;;;;;;;22.36;61.99;99917.67;1725127;82;21075;-74
2021/07/01 08:57:04;;;;;;;8.58;5.72;;;;;;;22.13;61.72;99919.91;1728982;82;22256;-75
2021/07/01 08:59:52;;;;;;;14.20;5.85;;;;;;;21.75;61.67;99927.06;1729924;81;21008;-74
2021/07/01 09:02:14;;;;;;;6.37;5.62;;;;;;;21.53;61.62;99925.45;1726052;82;21030;-75
2021/07/01 09:04:48;;;;;;;6.58;5.70;;;;;;;21.28;61.61;99928.13;1729041;81;21033;-75
2021/07/01 09:07:21;;;;;;;5.90;4.87;;;;;;;21.19;61.61;99928.27;1732804;81;21754;-75
2021/07/01 09:10:04;;;;;;;6.97;4.80;;;;;;;21.14;61.67;99930.09;1732967;82;21275;-75
2021/07/01 09:12:29;;;;;;;12.53;5.20;;;;;;;21.03;61.60;99922.85;1721011;82;21016;-74
2021/07/01 09:15:02;;;;;;;6.22;4.75;;;;;;;20.92;61.63;99935.44;1737123;82;21036;-74
2021/07/01 09:17:32;;;;;;;9.58;4.35;;;;;;;21.22;61.72;99930.47;1732409;82;21037;-74
2021/07/01 09:20:01;;;;;;;5.40;4.05;;;;;;;21.38;61.52;99931.50;1732363;82;21481;-74
2021/07/01 09:22:28;;;;;;;10.68;4.45;;;;;;;21.35;61.27;99934.72;1734848;81;22500;-74
2021/07/01 09:24:54;;;;;;;5.20;4.45;;;;;;;21.33;61.21;99929.53;1745580;81;21495;-74
2021/07/01 09:27:20;;;;;;;5.17;4.10;;;;;;;21.46;61.11;99930.25;1730932;83;21103;-75
2021/07/01 09:29:48;;;;;;;8.45;4.50;;;;;;;21.40;61.00;99927.46;1730092;82;21017;-74
2021/07/01 09:32:17;;;;;;;5.33;4.80;;;;;;;21.27;60.96;99926.48;1730784;81;21057;-74
2021/07/01 09:34:44;;;;;;;5.37;4.87;;;;;;;21.10;60.96;99928.42;1731011;83;21201;-74
2021/07/01 09:37:10;;;;;;;5.62;4.40;;;;;;;21.20;61.03;99929.91;1730498;82;21024;-74
2021/07/01 09:39:37;;;;;;;11.75;4.40;;;;;;;21.11;60.89;99923.26;1721065;81;21483;-74
2021/07/01 09:42:04;;;;;;;8.50;4.25;;;;;;;21.10;60.99;99921.64;1749196;82;20994;-75
2021/07/01 09:44:32;;;;;;;5.53;4.22;;;;;;;21.22;61.06;99920.98;1738783;81;20994;-74
2021/07/01 09:47:00;;;;;;;5.75;3.92;;;;;;;21.26;60.99;99922.12;1734192;82;21241;-74
2021/07/01 09:49:31;;;;;;;5.47;4.30;;;;;;;21.30;60.92;99919.73;1734071;82;20987;-74
2021/07/01 09:51:57;;;;;;;6.05;4.33;;;;;;;21.27;60.71;99925.66;1733404;81;20987;-75
2021/07/01 09:54:23;;;;;;;4.70;3.83;;;;;;;21.32;60.76;99923.02;1693608;82;21078;-74
2021/07/01 09:56:53;;;;;;;8.75;4.62;;;;;;;21.45;60.72;99925.89;1727176;82;21041;-74
2021/07/01 09:59:24;;;;;;;4.65;4.25;;;;;;;21.50;60.66;99919.18;1733683;81;21468;-74
2021/07/01 10:01:50;;;;;;;5.53;3.87;;;;;;;21.34;60.57;99928.48;1730848;82;21024;-74
2021/07/01 10:04:16;;;;;;;4.35;3.80;;;;;;;21.25;60.52;99921.83;1729043;83;21000;-74
2021/07/01 10:06:42;;;;;;;6.53;4.42;;;;;;;21.27;60.48;99927.84;1727483;82;21019;-75
2021/07/01 10:09:09;;;;;;;4.42;4.12;;;;;;;21.38;60.37;99928.27;1727197;83;21010;-75
2021/07/01 10:11:42;;;;;;;5.30;3.75;;;;;;;21.59;60.36;99924.44;1739197;82;21873;-75
2021/07/01 10:14:12;;;;;;;4.58;4.17;;;;;;;22.03;60.25;99913.81;1721017;81;21016;-73
2021/07/01 10:16:38;;;;;;;13.08;4.62;;;;;;;22.47;60.03;99919.11;1728312;81;21074;-73
2021/07/01 10:19:11;;;;;;;9.40;4.42;;;;;;;22.48;59.50;99927.55;1732212;81;21567;-72
2021/07/01 10:21:36;;;;;;;5.85;3.60;;;;;;;22.34;59.41;99930.68;1731293;81;21068;-73
2021/07/01 10:24:16;;;;;;;6.58;3.75;;;;;;;22.11;59.06;99926.94;1723481;81;21523;-72
2021/07/01 10:26:47;;;;;;;10.00;3.92;;;;;;;21.81;59.00;99927.39;1728909;81;21075;-72
2021/07/01 10:29:16;;;;;;;7.58;3.47;;;;;;;21.63;58.98;99924.22;1725342;82;21091;-73
2021/07/01 10:31:55;;;;;;;5.15;3.50;;;;;;;21.71;59.19;99927.84;1730842;81;21070;-73
2021/07/01 10:34:27;;;;;;;3.95;3.08;;;;;;;22.12;59.14;99939.45;1730137;82;21101;-72
2021/07/01 10:37:23;;;;;;;4.67;2.50;;;;;;;22.07;58.87;99935.31;1730319;82;21484;-72
2021/07/01 10:39:47;;;;;;;3.77;2.92;;;;;;;22.13;58.96;99934.84;1729826;82;21071;-73
2021/07/01 10:42:14;;;;;;;4.67;3.10;;;;;;;22.32;58.78;99929.30;1730073;81;21040;-73
2021/07/01 10:44:41;;;;;;;3.25;2.87;;;;;;;22.57;58.61;99924.63;1720975;82;21085;-72
2021/07/01 10:47:30;;;;;;;4.62;3.33;;;;;;;22.75;58.53;99929.16;1733630;81;21025;-72
2021/07/01 10:49:58;;;;;;;6.62;3.72;;;;;;;22.85;58.34;99922.97;1713173;82;22625;-72
2021/07/01 10:52:40;;;;;;;5.25;3.05;;;;;;;22.65;58.18;99937.75;1743766;82;21499;-73
2021/07/01 10:55:07;;;;;;;4.62;2.60;;;;;;;22.59;58.15;99936.08;1737583;81;21059;-73
2021/07/01 10:57:34;;;;;;;6.08;2.90;;;;;;;22.58;57.99;99924.91;1726692;81;21405;-73
2021/07/01 11:00:00;;;;;;;6.00;2.75;;;;;;;22.53;57.67;99924.86;1727757;81;21003;-73
2021/07/01 11:02:32;;;;;;;4.92;2.90;;;;;;;22.54;57.45;99931.95;1725171;82;21623;-73
2021/07/01 11:05:04;;;;;;;6.28;3.17;;;;;;;22.78;57.32;99929.17;1728575;82;20999;-73
2021/07/01 11:07:46;;;;;;;6.78;1.92;;;;;;;23.23;57.30;99934.07;1732537;82;20927;-73
2021/07/01 11:10:13;;;;;;;3.20;2.10;;;;;;;23.33;56.46;99949.91;1732524;82;21007;-73
2021/07/01 11:12:45;;;;;;;2.95;2.12;;;;;;;23.14;55.73;99929.69;1732042;82;21007;-73
2021/07/01 11:15:12;;;;;;;5.12;2.05;;;;;;;22.82;55.49;99934.38;1732658;82;21718;-73
2021/07/01 11:17:40;;;;;;;5.58;2.33;;;;;;;22.71;55.44;99944.89;1731950;82;21011;-73
2021/07/01 11:20:22;;;;;;;2.02;1.85;;;;;;;22.83;55.64;99945.53;1732361;82;21054;-73
2021/07/01 11:22:52;;;;;;;2.40;2.20;;;;;;;22.96;55.52;99938.28;1732403;82;21038;-73
2021/07/01 11:25:27;;;;;;;5.80;2.50;;;;;;;22.91;55.44;99949.11;1732605;82;21082;-73
2021/07/01 11:28:14;;;;;;;2.60;2.40;;;;;;;22.87;55.52;99947.45;1732628;82;21660;-73
2021/07/01 11:30:54;;;;;;;3.47;3.10;;;;;;;22.77;55.54;99953.36;1732098;81;21011;-73
2021/07/01 11:33:21;;;;;;;7.70;3.02;;;;;;;22.99;55.60;99958.15;1732242;82;21015;-73
2021/07/01 11:35:48;;;;;;;2.98;2.67;;;;;;;22.91;55.31;99961.34;1732425;82;21128;-73
2021/07/01 11:38:29;;;;;;;3.72;2.60;;;;;;;23.00;55.43;99961.16;1732404;82;21006;-73